createdAt,value
2023-05-24T00:01:34.042Z,101359.59
2023-05-24T00:04:01.893Z,101370.16
2023-05-24T00:06:29.572Z,101368.69
2023-05-24T00:08:57.559Z,101366.41
2023-05-24T00:11:27.692Z,101372.78
2023-05-24T00:13:55.178Z,101382.97
2023-05-24T00:16:22.721Z,101383.56
2023-05-24T00:18:50.432Z,101380.72
2023-05-24T00:21:17.888Z,101377.94
2023-05-24T00:23:45.567Z,101377.91
2023-05-24T00:26:13.311Z,101381.69
2023-05-24T00:28:42.089Z,101385.59
2023-05-24T00:31:09.528Z,101388.09
2023-05-24T00:33:36.998Z,101388.72
2023-05-24T00:36:04.666Z,101382.38
2023-05-24T00:38:32.119Z,101381.66
2023-05-24T00:41:01.013Z,101381.25
2023-05-24T00:43:28.427Z,101381.94
2023-05-24T00:46:14.419Z,101386.34
2023-05-24T00:48:42.757Z,101387.78
2023-05-24T00:51:10.497Z,101373.94
2023-05-24T00:53:38.406Z,101386.78
2023-05-24T00:56:07.441Z,101386.59
2023-05-24T00:58:35.086Z,101383.22
2023-05-24T01:01:04.970Z,101379.38
2023-05-24T01:03:33.832Z,101378.13
2023-05-24T01:06:03.465Z,101378.53
2023-05-24T01:08:47.570Z,101376.44
2023-05-24T01:11:26.303Z,101373.00
2023-05-24T01:14:05.276Z,101380.13
2023-05-24T01:16:46.629Z,101376.78
2023-05-24T01:19:43.297Z,101379.94
2023-05-24T01:22:25.155Z,101384.94
2023-05-24T01:25:02.219Z,101381.41
2023-05-24T01:27:32.707Z,101383.72
2023-05-24T01:30:00.938Z,101380.97
2023-05-24T01:32:29.035Z,101390.56
2023-05-24T01:34:56.600Z,101394.88
2023-05-24T01:37:24.278Z,101386.59
2023-05-24T01:39:53.421Z,101379.91
2023-05-24T01:42:26.873Z,101392.97
2023-05-24T01:45:04.989Z,101392.50
2023-05-24T01:47:43.159Z,101396.22
2023-05-24T01:50:18.280Z,101395.34
2023-05-24T01:52:47.549Z,101388.97
2023-05-24T01:55:18.680Z,101390.50
2023-05-24T01:57:49.665Z,101390.38
2023-05-24T02:00:21.039Z,101393.56
2023-05-24T02:02:48.906Z,101392.91
2023-05-24T02:05:16.524Z,101394.03
2023-05-24T02:07:43.984Z,101397.97
2023-05-24T02:10:11.800Z,101392.31
2023-05-24T02:12:39.247Z,101400.25
2023-05-24T02:15:07.743Z,101395.34
2023-05-24T02:17:36.527Z,101402.22
2023-05-24T02:20:04.794Z,101399.63
2023-05-24T02:22:32.248Z,101399.34
2023-05-24T02:24:59.677Z,101393.94
2023-05-24T02:27:27.095Z,101390.28
2023-05-24T02:29:54.562Z,101394.47
2023-05-24T02:32:22.015Z,101382.72
2023-05-24T02:34:50.767Z,101391.13
2023-05-24T02:37:18.222Z,101385.13
2023-05-24T02:39:45.659Z,101378.41
2023-05-24T02:42:13.087Z,101382.75
2023-05-24T02:44:42.522Z,101385.00
2023-05-24T02:47:09.976Z,101383.66
2023-05-24T02:49:37.397Z,101389.28
2023-05-24T02:52:06.809Z,101386.53
2023-05-24T02:54:34.257Z,101394.28
2023-05-24T02:57:01.711Z,101396.06
2023-05-24T02:59:29.401Z,101386.56
2023-05-24T03:01:57.007Z,101390.69
2023-05-24T03:04:24.456Z,101392.28
2023-05-24T03:06:53.554Z,101391.97
2023-05-24T03:09:22.311Z,101394.03
2023-05-24T03:11:49.818Z,101392.09
2023-05-24T03:14:17.434Z,101390.25
2023-05-24T03:16:45.299Z,101396.03
2023-05-24T03:19:12.811Z,101402.25
2023-05-24T03:21:40.273Z,101393.09
2023-05-24T03:24:09.520Z,101388.41
2023-05-24T03:26:38.274Z,101401.94
2023-05-24T03:29:05.737Z,101397.81
2023-05-24T03:31:33.180Z,101403.16
2023-05-24T03:34:00.700Z,101405.66
2023-05-24T03:36:28.932Z,101406.91
2023-05-24T03:38:58.276Z,101400.78
2023-05-24T03:41:26.213Z,101406.41
2023-05-24T03:43:55.071Z,101408.41
2023-05-24T03:46:22.600Z,101411.31
2023-05-24T03:48:50.143Z,101414.31
2023-05-24T03:51:18.089Z,101410.28
2023-05-24T03:53:46.185Z,101416.91
2023-05-24T03:56:13.586Z,101423.53
2023-05-24T03:58:41.045Z,101408.84
2023-05-24T04:01:12.585Z,101413.22
2023-05-24T04:03:46.082Z,101404.28
2023-05-24T04:06:16.190Z,101410.75
2023-05-24T04:08:44.940Z,101409.94
2023-05-24T04:11:12.448Z,101416.19
2023-05-24T04:13:39.841Z,101420.94
2023-05-24T04:16:09.642Z,101419.03
2023-05-24T04:18:38.498Z,101416.84
2023-05-24T04:21:06.162Z,101425.63
2023-05-24T04:23:33.569Z,101423.75
2023-05-24T04:26:01.216Z,101424.56
2023-05-24T04:28:28.714Z,101426.94
2023-05-24T04:30:57.677Z,101429.66
2023-05-24T04:33:25.181Z,101426.56
2023-05-24T04:35:54.001Z,101426.16
2023-05-24T04:38:22.161Z,101430.06
2023-05-24T04:40:49.667Z,101427.53
2023-05-24T04:43:17.077Z,101441.22
2023-05-24T04:45:44.512Z,101438.13
2023-05-24T04:48:12.149Z,101440.84
2023-05-24T04:50:40.126Z,101447.34
2023-05-24T04:53:08.996Z,101445.84
2023-05-24T04:55:36.420Z,101456.13
2023-05-24T04:58:04.338Z,101455.03
2023-05-24T05:00:32.789Z,101456.19
2023-05-24T05:03:00.444Z,101461.84
2023-05-24T05:05:27.988Z,101462.16
2023-05-24T05:07:55.608Z,101465.03
2023-05-24T05:10:24.395Z,101463.19
2023-05-24T05:12:51.963Z,101467.38
2023-05-24T05:15:19.448Z,101465.09
2023-05-24T05:17:46.916Z,101482.47
2023-05-24T05:20:14.418Z,101481.38
2023-05-24T05:22:46.811Z,101486.94
2023-05-24T05:25:14.296Z,101485.84
2023-05-24T05:27:43.134Z,101486.41
2023-05-24T05:30:11.495Z,101486.47
2023-05-24T05:32:39.059Z,101483.00
2023-05-24T05:35:07.552Z,101483.41
2023-05-24T05:37:35.052Z,101499.66
2023-05-24T05:40:03.928Z,101488.63
2023-05-24T05:42:31.384Z,101503.97
2023-05-24T05:45:00.214Z,101491.75
2023-05-24T05:47:27.692Z,101505.34
2023-05-24T05:49:55.188Z,101500.97
2023-05-24T05:52:22.626Z,101502.03
2023-05-24T05:54:50.247Z,101508.84
2023-05-24T05:57:19.671Z,101507.53
2023-05-24T05:59:47.104Z,101506.13
2023-05-24T06:02:16.015Z,101509.19
2023-05-24T06:04:43.506Z,101514.78
2023-05-24T06:07:11.022Z,101515.59
2023-05-24T06:09:38.566Z,101513.78
2023-05-24T06:12:06.621Z,101517.75
2023-05-24T06:14:34.430Z,101529.03
2023-05-24T06:17:02.102Z,101514.75
2023-05-24T06:19:31.078Z,101527.41
2023-05-24T06:21:58.572Z,101527.13
2023-05-24T06:24:26.047Z,101522.41
2023-05-24T06:26:54.056Z,101524.47
2023-05-24T06:29:22.287Z,101527.41
2023-05-24T06:31:50.927Z,101526.31
2023-05-24T06:34:21.138Z,101532.19
2023-05-24T06:36:52.958Z,101531.75
2023-05-24T06:39:20.914Z,101535.31
2023-05-24T06:41:51.179Z,101543.09
2023-05-24T06:44:18.782Z,101540.28
2023-05-24T06:46:46.485Z,101545.06
2023-05-24T06:49:14.066Z,101543.50
2023-05-24T06:51:41.668Z,101540.50
2023-05-24T06:54:10.489Z,101559.59
2023-05-24T06:56:37.947Z,101561.13
2023-05-24T06:59:05.920Z,101570.03
2023-05-24T07:01:33.747Z,101562.78
2023-05-24T07:04:01.294Z,101558.16
2023-05-24T07:06:28.756Z,101556.69
2023-05-24T07:08:56.189Z,101563.59
2023-05-24T07:11:25.217Z,101559.56
2023-05-24T07:13:52.683Z,101566.56
2023-05-24T07:16:20.246Z,101567.03
2023-05-24T07:18:47.758Z,101574.31
2023-05-24T07:21:15.194Z,101570.66
2023-05-24T07:23:42.663Z,101567.44
2023-05-24T07:26:10.097Z,101569.91
2023-05-24T07:28:40.441Z,101575.88
2023-05-24T07:31:09.910Z,101578.41
2023-05-24T07:33:38.135Z,101576.72
2023-05-24T07:36:07.080Z,101579.31
2023-05-24T07:38:35.176Z,101588.09
2023-05-24T07:41:04.694Z,101582.06
2023-05-24T07:43:32.164Z,101592.81
2023-05-24T07:46:01.144Z,101586.75
2023-05-24T07:48:28.612Z,101589.50
2023-05-24T07:50:56.822Z,101594.84
2023-05-24T07:53:24.343Z,101595.75
2023-05-24T07:55:51.914Z,101600.38
2023-05-24T07:58:19.482Z,101602.44
2023-05-24T08:00:46.898Z,101605.34
2023-05-24T08:03:17.421Z,101601.25
2023-05-24T08:05:45.129Z,101588.84
2023-05-24T08:08:12.809Z,101585.34
2023-05-24T08:10:40.265Z,101580.94
2023-05-24T08:13:07.961Z,101589.63
2023-05-24T08:15:35.395Z,101586.03
2023-05-24T08:18:03.509Z,101594.69
2023-05-24T08:20:36.120Z,101593.91
2023-05-24T08:23:03.749Z,101595.69
2023-05-24T08:25:31.588Z,101593.94
2023-05-24T08:27:59.074Z,101600.00
2023-05-24T08:30:26.508Z,101598.19
2023-05-24T08:32:53.961Z,101600.03
2023-05-24T08:35:22.235Z,101598.25
2023-05-24T08:37:51.573Z,101605.03
2023-05-24T08:40:19.255Z,101606.75
2023-05-24T08:42:47.114Z,101609.38
2023-05-24T08:45:16.119Z,101617.50
2023-05-24T08:47:44.131Z,101621.38
2023-05-24T08:50:12.072Z,101617.47
2023-05-24T08:52:41.390Z,101617.50
2023-05-24T08:55:12.372Z,101620.97
2023-05-24T08:57:41.623Z,101620.78
2023-05-24T09:00:11.796Z,101621.81
2023-05-24T09:02:40.572Z,101622.66
2023-05-24T09:05:11.434Z,101630.38
2023-05-24T09:07:39.378Z,101634.88
2023-05-24T09:10:08.950Z,101641.56
2023-05-24T09:12:39.713Z,101638.25
2023-05-24T09:15:09.491Z,101633.03
2023-05-24T09:17:37.950Z,101639.16
2023-05-24T09:20:10.028Z,101639.75
2023-05-24T09:22:40.783Z,101644.03
2023-05-24T09:25:10.858Z,101634.00
2023-05-24T09:27:39.932Z,101637.47
2023-05-24T09:30:11.206Z,101645.06
2023-05-24T09:32:39.175Z,101633.13
2023-05-24T09:35:10.309Z,101638.88
2023-05-24T09:37:40.256Z,101635.38
2023-05-24T09:40:18.353Z,101643.84
2023-05-24T09:42:48.956Z,101646.44
2023-05-24T09:45:16.623Z,101642.16
2023-05-24T09:47:45.421Z,101634.66
2023-05-24T09:50:14.407Z,101638.69
2023-05-24T09:52:42.713Z,101637.28
2023-05-24T09:55:13.383Z,101655.00
2023-05-24T09:57:41.196Z,101659.13
2023-05-24T10:00:17.690Z,101658.38
2023-05-24T10:02:53.480Z,101645.00
2023-05-24T10:05:22.207Z,101663.66
2023-05-24T10:07:49.911Z,101653.72
2023-05-24T10:10:17.838Z,101655.41
2023-05-24T10:12:46.993Z,101655.44
2023-05-24T10:15:16.621Z,101652.06
2023-05-24T10:17:44.372Z,101653.94
2023-05-24T10:20:13.505Z,101643.47
2023-05-24T10:22:46.309Z,101640.69
2023-05-24T10:25:19.415Z,101646.72
2023-05-24T10:27:49.580Z,101648.25
2023-05-24T10:30:27.964Z,101639.22
2023-05-24T10:32:57.863Z,101641.25
2023-05-24T10:35:26.881Z,101633.91
2023-05-24T10:37:55.694Z,101631.91
2023-05-24T10:40:26.049Z,101645.06
2023-05-24T10:42:54.260Z,101646.69
2023-05-24T10:45:35.596Z,101659.13
2023-05-24T10:48:10.371Z,101644.78
2023-05-24T10:50:37.864Z,101656.47
2023-05-24T10:53:15.906Z,101653.63
2023-05-24T10:55:53.698Z,101656.50
2023-05-24T10:58:21.731Z,101653.00
2023-05-24T11:00:53.381Z,101648.56
2023-05-24T11:03:24.613Z,101655.59
2023-05-24T11:05:55.355Z,101664.22
2023-05-24T11:08:27.471Z,101667.66
2023-05-24T11:11:22.318Z,101661.56
2023-05-24T11:13:57.662Z,101664.09
2023-05-24T11:16:39.271Z,101655.59
2023-05-24T11:19:15.058Z,101655.59
2023-05-24T11:21:45.479Z,101664.22
2023-05-24T11:24:13.152Z,101662.59
2023-05-24T11:26:41.146Z,101658.25
2023-05-24T11:29:09.132Z,101654.75
2023-05-24T11:31:43.162Z,101649.53
2023-05-24T11:34:11.831Z,101657.34
2023-05-24T11:36:39.662Z,101653.91
2023-05-24T11:39:09.418Z,101648.59
2023-05-24T11:41:38.943Z,101653.84
2023-05-24T11:44:09.723Z,101654.78
2023-05-24T11:46:40.084Z,101641.22
2023-05-24T11:49:07.763Z,101649.38
2023-05-24T11:51:37.480Z,101647.63
2023-05-24T11:54:05.229Z,101646.69
2023-05-24T11:56:34.054Z,101648.47
2023-05-24T11:59:09.685Z,101660.00
2023-05-24T12:01:39.210Z,101667.63
2023-05-24T12:04:08.730Z,101661.63
2023-05-24T12:06:39.578Z,101669.47
2023-05-24T12:09:10.357Z,101669.38
2023-05-24T12:11:42.183Z,101675.34
2023-05-24T12:14:13.562Z,101666.94
2023-05-24T12:16:43.136Z,101672.13
2023-05-24T12:19:31.744Z,101671.28
2023-05-24T12:22:01.220Z,101667.75
2023-05-24T12:24:28.958Z,101664.28
2023-05-24T12:27:01.180Z,101662.50
2023-05-24T12:29:28.841Z,101660.72
2023-05-24T12:31:57.630Z,101661.44
2023-05-24T12:34:25.340Z,101658.81
2023-05-24T12:36:57.034Z,101661.19
2023-05-24T12:39:31.017Z,101655.50
2023-05-24T12:42:01.587Z,101660.63
2023-05-24T12:44:30.038Z,101664.19
2023-05-24T12:46:59.720Z,101663.97
2023-05-24T12:49:27.836Z,101662.06
2023-05-24T12:51:56.565Z,101661.41
2023-05-24T12:54:25.520Z,101657.59
2023-05-24T12:56:56.769Z,101657.41
2023-05-24T12:59:25.236Z,101661.38
2023-05-24T13:01:53.122Z,101669.78
2023-05-24T13:04:24.383Z,101660.47
2023-05-24T13:06:52.013Z,101665.88
2023-05-24T13:09:22.367Z,101664.16
2023-05-24T13:11:49.879Z,101672.16
2023-05-24T13:14:18.178Z,101667.75
2023-05-24T13:16:45.950Z,101665.09
2023-05-24T13:19:13.769Z,101651.75
2023-05-24T13:21:42.724Z,101660.78
2023-05-24T13:24:10.329Z,101662.06
2023-05-24T13:26:38.698Z,101655.25
2023-05-24T13:31:38.304Z,101658.78
2023-05-24T13:34:05.944Z,101664.22
2023-05-24T13:36:33.592Z,101659.00
2023-05-24T13:39:14.920Z,101655.44
2023-05-24T13:41:43.790Z,101662.50
2023-05-24T13:44:11.585Z,101664.25
2023-05-24T13:46:39.321Z,101653.44
2023-05-24T13:49:07.241Z,101660.50
2023-05-24T13:51:34.753Z,101663.16
2023-05-24T13:54:04.859Z,101666.06
2023-05-24T13:56:34.188Z,101654.16
2023-05-24T13:59:02.680Z,101659.63
2023-05-24T14:01:30.428Z,101668.44
2023-05-24T14:03:57.894Z,101656.88
2023-05-24T14:06:25.472Z,101655.28
2023-05-24T14:08:53.041Z,101655.03
2023-05-24T14:11:22.309Z,101651.41
2023-05-24T14:16:21.164Z,101652.69
2023-05-24T14:18:50.232Z,101662.47
2023-05-24T14:21:18.908Z,101653.59
2023-05-24T14:23:46.383Z,101657.09
2023-05-24T14:26:14.026Z,101647.75
2023-05-24T14:28:42.832Z,101648.72
2023-05-24T14:31:10.391Z,101647.13
2023-05-24T14:33:38.811Z,101649.91
2023-05-24T14:36:06.949Z,101637.38
2023-05-24T14:38:34.530Z,101640.84
2023-05-24T14:41:02.084Z,101645.97
2023-05-24T14:43:29.629Z,101640.41
2023-05-24T14:45:58.573Z,101645.03
2023-05-24T14:48:26.086Z,101654.59
2023-05-24T14:50:53.624Z,101648.47
2023-05-24T14:53:21.094Z,101655.16
2023-05-24T14:55:48.734Z,101652.66
2023-05-24T14:58:16.316Z,101659.28
2023-05-24T15:00:44.206Z,101640.66
2023-05-24T15:03:14.581Z,101633.19
2023-05-24T15:05:42.742Z,101648.31
2023-05-24T15:08:10.953Z,101644.53
2023-05-24T15:10:39.921Z,101646.13
2023-05-24T15:13:08.126Z,101652.09
2023-05-24T15:15:35.858Z,101657.31
2023-05-24T15:18:03.441Z,101659.97
2023-05-24T15:20:35.796Z,101647.25
2023-05-24T15:23:03.807Z,101651.47
2023-05-24T15:25:31.357Z,101642.91
2023-05-24T15:27:58.879Z,101640.84
2023-05-24T15:30:26.547Z,101644.72
2023-05-24T15:32:54.089Z,101651.06
2023-05-24T15:35:21.806Z,101650.53
2023-05-24T15:37:50.612Z,101645.16
2023-05-24T15:40:18.686Z,101635.19
2023-05-24T15:42:46.415Z,101639.81
2023-05-24T15:45:13.983Z,101647.44
2023-05-24T15:47:41.500Z,101649.31
2023-05-24T15:50:09.961Z,101646.66
2023-05-24T15:52:37.544Z,101648.84
2023-05-24T15:55:07.631Z,101651.16
2023-05-24T15:57:35.234Z,101652.56
2023-05-24T16:00:03.880Z,101646.44
2023-05-24T16:02:31.467Z,101647.44
2023-05-24T16:04:58.940Z,101642.31
2023-05-24T16:07:26.447Z,101641.78
2023-05-24T16:09:54.120Z,101643.06
2023-05-24T16:12:22.905Z,101642.78
2023-05-24T16:14:50.534Z,101632.53
2023-05-24T16:17:18.074Z,101643.97
2023-05-24T16:19:47.117Z,101636.22
2023-05-24T16:22:14.742Z,101633.41
2023-05-24T16:24:42.626Z,101638.88
2023-05-24T16:27:10.222Z,101638.75
2023-05-24T16:29:39.369Z,101652.97
2023-05-24T16:32:08.617Z,101647.28
2023-05-24T16:34:52.108Z,101654.69
2023-05-24T16:37:23.272Z,101643.63
2023-05-24T16:39:50.806Z,101641.19
2023-05-24T16:42:18.337Z,101641.88
2023-05-24T16:44:47.155Z,101645.44
2023-05-24T16:47:14.726Z,101644.00
2023-05-24T16:49:42.322Z,101639.94
2023-05-24T16:52:09.838Z,101631.75
2023-05-24T16:54:37.360Z,101630.47
2023-05-24T16:57:05.228Z,101646.47
2023-05-24T16:59:32.874Z,101650.66
2023-05-24T17:02:01.809Z,101653.28
2023-05-24T17:04:29.342Z,101637.22
2023-05-24T17:06:56.779Z,101640.53
2023-05-24T17:09:24.339Z,101644.81
2023-05-24T17:11:51.842Z,101649.84
2023-05-24T17:14:19.515Z,101650.50
2023-05-24T17:16:47.097Z,101654.28
2023-05-24T17:19:16.017Z,101642.63
2023-05-24T17:21:43.546Z,101648.47
2023-05-24T17:24:11.183Z,101649.34
2023-05-24T17:26:39.031Z,101643.75
2023-05-24T17:29:06.573Z,101658.56
2023-05-24T17:31:34.382Z,101648.28
2023-05-24T17:34:01.970Z,101656.31
2023-05-24T17:36:33.446Z,101657.81
2023-05-24T17:39:00.950Z,101657.75
2023-05-24T17:41:28.553Z,101667.53
2023-05-24T17:43:56.018Z,101663.31
2023-05-24T17:46:23.615Z,101659.97
2023-05-24T17:48:51.866Z,101665.16
2023-05-24T17:51:19.915Z,101675.06
2023-05-24T17:53:48.660Z,101671.00
2023-05-24T17:56:16.154Z,101662.78
2023-05-24T17:58:44.938Z,101670.75
2023-05-24T18:01:15.196Z,101667.00
2023-05-24T18:03:42.779Z,101676.03
2023-05-24T18:06:10.378Z,101679.88
2023-05-24T18:08:43.063Z,101672.03
2023-05-24T18:11:13.268Z,101688.63
2023-05-24T18:13:41.974Z,101686.91
2023-05-24T18:16:11.016Z,101681.56
2023-05-24T18:18:38.879Z,101684.94
2023-05-24T18:21:06.750Z,101695.53
2023-05-24T18:23:37.699Z,101692.03
2023-05-24T18:26:07.947Z,101689.25
2023-05-24T18:28:38.005Z,101703.00
2023-05-24T18:31:08.292Z,101709.41
2023-05-24T18:33:36.032Z,101699.72
2023-05-24T18:36:04.404Z,101694.50
2023-05-24T18:38:32.477Z,101702.31
2023-05-24T18:40:59.944Z,101700.44
2023-05-24T18:43:27.513Z,101702.13
2023-05-24T18:45:56.438Z,101705.81
2023-05-24T18:48:23.968Z,101708.31
2023-05-24T18:50:52.055Z,101705.81
2023-05-24T18:53:19.618Z,101709.28
2023-05-24T18:55:47.873Z,101709.19
2023-05-24T18:58:15.460Z,101707.63
2023-05-24T19:00:43.025Z,101716.13
2023-05-24T19:03:13.150Z,101718.75
2023-05-24T19:05:43.514Z,101719.66
2023-05-24T19:08:11.871Z,101716.16
2023-05-24T19:10:39.468Z,101717.06
2023-05-24T19:13:06.985Z,101719.63
2023-05-24T19:15:36.581Z,101729.19
2023-05-24T19:18:04.219Z,101722.28
2023-05-24T19:20:33.199Z,101727.59
2023-05-24T19:23:00.687Z,101731.06
2023-05-24T19:25:28.209Z,101734.50
2023-05-24T19:27:59.816Z,101739.75
2023-05-24T19:30:27.888Z,101739.75
2023-05-24T19:32:55.474Z,101749.38
2023-05-24T19:35:23.212Z,101751.06
2023-05-24T19:37:52.537Z,101752.81
2023-05-24T19:40:20.295Z,101755.41
2023-05-24T19:42:47.740Z,101753.69
2023-05-24T19:45:15.269Z,101760.66
2023-05-24T19:47:42.836Z,101756.28
2023-05-24T19:50:13.328Z,101755.44
2023-05-24T19:52:40.827Z,101767.56
2023-05-24T19:55:10.775Z,101761.50
2023-05-24T19:57:38.267Z,101761.50
2023-05-24T20:00:07.022Z,101766.72
2023-05-24T20:02:36.539Z,101766.72
2023-05-24T20:05:04.847Z,101769.28
2023-05-24T20:07:32.433Z,101764.97
2023-05-24T20:10:00.814Z,101771.06
2023-05-24T20:12:30.812Z,101773.66
2023-05-24T20:14:58.243Z,101770.19
2023-05-24T20:17:25.725Z,101773.66
2023-05-24T20:19:53.240Z,101778.84
2023-05-24T20:22:21.014Z,101768.47
2023-05-24T20:24:48.479Z,101777.13
2023-05-24T20:27:15.977Z,101769.28
2023-05-24T20:29:44.969Z,101774.50
2023-05-24T20:32:12.418Z,101770.97
2023-05-24T20:34:39.952Z,101771.88
2023-05-24T20:37:07.511Z,101777.03
2023-05-24T20:39:34.989Z,101780.53
2023-05-24T20:42:02.405Z,101786.44
2023-05-24T20:44:29.887Z,101782.25
2023-05-24T20:46:58.636Z,101785.69
2023-05-24T20:49:26.158Z,101777.03
2023-05-24T20:51:53.586Z,101772.69
2023-05-24T20:54:21.059Z,101782.25
2023-05-24T20:56:48.466Z,101777.03
2023-05-24T20:59:16.021Z,101777.91
2023-05-24T21:01:43.802Z,101777.06
2023-05-24T21:04:12.628Z,101790.78
2023-05-24T21:06:40.387Z,101786.56
2023-05-24T21:09:07.843Z,101799.34
2023-05-24T21:11:35.414Z,101800.31
2023-05-24T21:14:02.974Z,101813.19
2023-05-24T21:16:30.516Z,101804.66
2023-05-24T21:19:00.698Z,101815.03
2023-05-24T21:21:29.497Z,101815.00
2023-05-24T21:23:57.776Z,101809.78
2023-05-24T21:26:26.417Z,101808.06
2023-05-24T21:28:53.925Z,101818.34
2023-05-24T21:31:21.556Z,101815.59
2023-05-24T21:33:49.298Z,101817.03
2023-05-24T21:36:18.410Z,101820.78
2023-05-24T21:38:47.685Z,101826.97
2023-05-24T21:41:15.114Z,101831.19
2023-05-24T21:43:42.826Z,101829.81
2023-05-24T21:46:10.279Z,101835.78
2023-05-24T21:48:37.753Z,101833.50
2023-05-24T21:51:05.262Z,101832.78
2023-05-24T21:53:34.823Z,101831.97
2023-05-24T21:56:03.633Z,101837.16
2023-05-24T21:58:31.180Z,101844.50
2023-05-24T22:00:58.664Z,101842.00
2023-05-24T22:03:26.248Z,101844.22
2023-05-24T22:05:53.756Z,101846.56
2023-05-24T22:08:21.207Z,101843.84
2023-05-24T22:10:48.668Z,101846.63
2023-05-24T22:13:17.522Z,101851.78
2023-05-24T22:15:45.164Z,101855.31
2023-05-24T22:18:17.429Z,101857.09
2023-05-24T22:20:45.734Z,101861.63
2023-05-24T22:23:14.721Z,101856.53
2023-05-24T22:25:42.632Z,101861.56
2023-05-24T22:28:10.259Z,101855.09
2023-05-24T22:30:40.671Z,101857.94
2023-05-24T22:33:08.237Z,101857.94
2023-05-24T22:35:35.729Z,101856.84
2023-05-24T22:38:03.251Z,101851.69
2023-05-24T22:40:30.730Z,101852.91
2023-05-24T22:42:58.171Z,101858.75
2023-05-24T22:45:25.593Z,101855.66
2023-05-24T22:47:58.276Z,101855.44
2023-05-24T22:50:26.213Z,101868.72
2023-05-24T22:52:56.484Z,101865.44
2023-05-24T22:55:24.403Z,101864.00
2023-05-24T22:57:51.911Z,101861.44
2023-05-24T23:00:20.583Z,101856.16
2023-05-24T23:02:48.125Z,101867.53
2023-05-24T23:05:17.290Z,101870.13
2023-05-24T23:07:45.945Z,101859.63
2023-05-24T23:10:13.406Z,101856.94
2023-05-24T23:12:42.211Z,101857.94
2023-05-24T23:15:11.464Z,101855.34
2023-05-24T23:17:38.954Z,101857.97
2023-05-24T23:20:09.908Z,101857.97
2023-05-24T23:22:38.948Z,101850.06
2023-05-24T23:25:07.927Z,101849.06
2023-05-24T23:27:35.512Z,101850.66
2023-05-24T23:30:02.966Z,101862.78
2023-05-24T23:32:30.453Z,101858.47
2023-05-24T23:34:57.898Z,101857.63
2023-05-24T23:37:25.458Z,101857.53
2023-05-24T23:39:54.233Z,101860.94
2023-05-24T23:42:21.669Z,101861.69
2023-05-24T23:44:49.098Z,101865.28
2023-05-24T23:47:16.680Z,101867.91
2023-05-24T23:49:44.148Z,101861.88
2023-05-24T23:52:12.152Z,101873.00
2023-05-24T23:54:39.895Z,101876.50
2023-05-24T23:57:08.675Z,101862.66
2023-05-24T23:59:36.336Z,101866.97
